Time;durP1;ratioP1;P1;durP2;ratioP2;P2;SDS_P1;SDS_P2;PMS_P1;PMS_P2;Temp;Humidity;BMP_temperature;BMP_pressure;BME280_temperature;BME280_humidity;BME280_pressure;Samples;Min_cycle;Max_cycle;Signal;HPM_P1;HPM_P2
2021/01/08 00:00:26;;;;;;;;;;;;;;;;;;4994645;28;20292;-67
2021/01/08 00:02:52;;;;;;;;;;;;;;;;;;4995020;28;19925;-67
2021/01/08 00:05:19;;;;;;;;;;;;;;;;;;4992920;28;19929;-67
2021/01/08 00:07:45;;;;;;;;;;;;;;;;;;4993914;28;19926;-66
2021/01/08 00:10:12;;;;;;;;;;;;;;;;;;4986562;28;19926;-71
2021/01/08 00:12:38;;;;;;;;;;;;;;;;;;4993141;28;20380;-68
2021/01/08 00:15:05;;;;;;;;;;;;;;;;;;4993631;28;19926;-67
2021/01/08 00:17:31;;;;;;;;;;;;;;;;;;4992838;28;20244;-66
2021/01/08 00:19:58;;;;;;;;;;;;;;;;;;4997382;28;19926;-68
2021/01/08 00:22:24;;;;;;;;;;;;;;;;;;5001791;28;19925;-66
2021/01/08 00:24:51;;;;;;;;;;;;;;;;;;5000710;28;20399;-67
2021/01/08 00:27:17;;;;;;;;;;;;;;;;;;4991062;28;19971;-68
2021/01/08 00:29:44;;;;;;;;;;;;;;;;;;4990756;28;20360;-67
2021/01/08 00:32:10;;;;;;;;;;;;;;;;;;4992822;28;19984;-67
2021/01/08 00:34:37;;;;;;;;;;;;;;;;;;4995340;28;19932;-67
2021/01/08 00:37:03;;;;;;;;;;;;;;;;;;4992443;28;19925;-68
2021/01/08 00:39:30;;;;;;;;;;;;;;;;;;4995411;28;19933;-68
2021/01/08 00:41:56;;;;;;;;;;;;;;;;;;4991836;28;19934;-67
2021/01/08 00:44:23;;;;;;;;;;;;;;;;;;4992736;28;20389;-67
2021/01/08 00:46:49;;;;;;;;;;;;;;;;;;4993675;28;19925;-67
2021/01/08 00:49:16;;;;;;;;;;;;;;;;;;4992757;28;19972;-67
2021/01/08 00:51:42;;;;;;;;;;;;;;;;;;4987285;28;20343;-67
2021/01/08 00:54:09;;;;;;;;;;;;;;;;;;4991278;28;19933;-67
2021/01/08 00:56:35;;;;;;;;;;;;;;;;;;4988913;28;20013;-67
2021/01/08 00:59:02;;;;;;;;;;;;;;;;;;4992564;28;20017;-67
2021/01/08 01:01:28;;;;;;;;;;;;;;;;;;4991508;28;19938;-67
2021/01/08 01:03:55;;;;;;;;;;;;;;;;;;4993734;28;20567;-67
2021/01/08 01:06:21;;;;;;;;;;;;;;;;;;4992367;28;19952;-67
2021/01/08 01:08:47;;;;;;;;;;;;;;;;;;4992032;28;19932;-67
2021/01/08 01:11:14;;;;;;;;;;;;;;;;;;4992151;28;19925;-66
2021/01/08 01:13:40;;;;;;;;;;;;;;;;;;4992276;28;19944;-67
2021/01/08 01:16:07;;;;;;;;;;;;;;;;;;4992847;28;19979;-66
2021/01/08 01:18:33;;;;;;;;;;;;;;;;;;4991762;28;20010;-68
2021/01/08 01:21:00;;;;;;;;;;;;;;;;;;4989174;28;20005;-67
2021/01/08 01:23:26;;;;;;;;;;;;;;;;;;4992498;28;19936;-67
2021/01/08 01:25:53;;;;;;;;;;;;;;;;;;4992008;28;19936;-67
2021/01/08 01:28:19;;;;;;;;;;;;;;;;;;4992402;28;20362;-67
2021/01/08 01:30:46;;;;;;;;;;;;;;;;;;4989529;28;20487;-67
2021/01/08 01:33:12;;;;;;;;;;;;;;;;;;4993243;28;19926;-67
2021/01/08 01:35:39;;;;;;;;;;;;;;;;;;4984015;28;19926;-67
2021/01/08 01:38:05;;;;;;;;;;;;;;;;;;4992356;28;20383;-67
2021/01/08 01:40:32;;;;;;;;;;;;;;;;;;4992637;28;19926;-69
2021/01/08 01:42:58;;;;;;;;;;;;;;;;;;4991937;28;20384;-67
2021/01/08 01:45:25;;;;;;;;;;;;;;;;;;4991984;28;20013;-67
2021/01/08 01:47:51;;;;;;;;;;;;;;;;;;4993361;28;19937;-68
2021/01/08 01:50:17;;;;;;;;;;;;;;;;;;4990921;28;19926;-67
2021/01/08 01:52:44;;;;;;;;;;;;;;;;;;4988875;28;19949;-67
2021/01/08 01:55:10;;;;;;;;;;;;;;;;;;4997434;28;20391;-67
2021/01/08 01:57:37;;;;;;;;;;;;;;;;;;4991871;28;19933;-68
2021/01/08 02:00:03;;;;;;;;;;;;;;;;;;4988063;28;19932;-66
2021/01/08 02:02:30;;;;;;;;;;;;;;;;;;4988440;28;19979;-67
2021/01/08 02:04:56;;;;;;;;;;;;;;;;;;4997793;28;19926;-67
2021/01/08 02:07:23;;;;;;;;;;;;;;;;;;4992183;28;20311;-67
2021/01/08 02:09:49;;;;;;;;;;;;;;;;;;4992081;28;19926;-66
2021/01/08 02:12:16;;;;;;;;;;;;;;;;;;4993689;28;19926;-67
2021/01/08 02:14:42;;;;;;;;;;;;;;;;;;4995041;28;19926;-67
2021/01/08 02:17:08;;;;;;;;;;;;;;;;;;4994551;28;19926;-67
2021/01/08 02:19:35;;;;;;;;;;;;;;;;;;4992393;28;20157;-66
2021/01/08 02:22:01;;;;;;;;;;;;;;;;;;4992787;28;20009;-66
2021/01/08 02:24:28;;;;;;;;;;;;;;;;;;4991913;28;19926;-67
2021/01/08 02:26:54;;;;;;;;;;;;;;;;;;4991552;28;19925;-67
2021/01/08 02:29:21;;;;;;;;;;;;;;;;;;4991316;28;20319;-67
2021/01/08 02:31:47;;;;;;;;;;;;;;;;;;4991696;28;19926;-68
2021/01/08 02:34:13;;;;;;;;;;;;;;;;;;4991610;28;19926;-67
2021/01/08 02:36:40;;;;;;;;;;;;;;;;;;4990702;28;19925;-67
2021/01/08 02:39:06;;;;;;;;;;;;;;;;;;4992306;28;19926;-67
2021/01/08 02:41:33;;;;;;;;;;;;;;;;;;5001548;28;19975;-67
2021/01/08 02:43:59;;;;;;;;;;;;;;;;;;4993160;28;19930;-67
2021/01/08 02:46:26;;;;;;;;;;;;;;;;;;4988291;28;19932;-67
2021/01/08 02:48:52;;;;;;;;;;;;;;;;;;4992305;28;19925;-66
2021/01/08 02:51:18;;;;;;;;;;;;;;;;;;4993246;28;19941;-67
2021/01/08 02:53:45;;;;;;;;;;;;;;;;;;4991972;28;19926;-67
2021/01/08 02:56:11;;;;;;;;;;;;;;;;;;4991968;28;19925;-68
2021/01/08 02:58:38;;;;;;;;;;;;;;;;;;4990961;28;19926;-67
2021/01/08 03:01:04;;;;;;;;;;;;;;;;;;4995168;28;20064;-67
2021/01/08 03:03:31;;;;;;;;;;;;;;;;;;4995697;28;20012;-67
2021/01/08 03:05:57;;;;;;;;;;;;;;;;;;4995732;28;19972;-66
2021/01/08 03:08:24;;;;;;;;;;;;;;;;;;4989540;28;20020;-66
2021/01/08 03:10:50;;;;;;;;;;;;;;;;;;4995225;28;20319;-67
2021/01/08 03:13:17;;;;;;;;;;;;;;;;;;4995437;28;19937;-67
2021/01/08 03:15:43;;;;;;;;;;;;;;;;;;4987741;28;19926;-71
2021/01/08 03:18:10;;;;;;;;;;;;;;;;;;4994177;28;19926;-67
2021/01/08 03:20:36;;;;;;;;;;;;;;;;;;4994833;28;19925;-67
2021/01/08 03:23:04;;;;;;;;;;;;;;;;;;4997679;28;19973;-66
2021/01/08 03:25:31;;;;;;;;;;;;;;;;;;4991133;28;19930;-67
2021/01/08 03:27:57;;;;;;;;;;;;;;;;;;5000154;28;20413;-69
2021/01/08 03:30:24;;;;;;;;;;;;;;;;;;4995239;28;19926;-67
2021/01/08 03:32:50;;;;;;;;;;;;;;;;;;4998781;28;19948;-67
2021/01/08 03:35:17;;;;;;;;;;;;;;;;;;4997265;28;19936;-67
2021/01/08 03:37:43;;;;;;;;;;;;;;;;;;4994292;28;19930;-67
2021/01/08 03:40:10;;;;;;;;;;;;;;;;;;4994993;28;19937;-67
2021/01/08 03:42:36;;;;;;;;;;;;;;;;;;4995018;28;19987;-66
2021/01/08 03:45:02;;;;;;;;;;;;;;;;;;4995143;28;19925;-70
2021/01/08 03:47:29;;;;;;;;;;;;;;;;;;4994565;28;19926;-67
2021/01/08 03:49:55;;;;;;;;;;;;;;;;;;4993874;28;20362;-67
2021/01/08 03:52:22;;;;;;;;;;;;;;;;;;4993969;28;20020;-67
2021/01/08 03:54:48;;;;;;;;;;;;;;;;;;4987917;28;20410;-67
2021/01/08 03:57:15;;;;;;;;;;;;;;;;;;4994094;28;19932;-67
2021/01/08 03:59:41;;;;;;;;;;;;;;;;;;4994260;28;19933;-67
2021/01/08 04:02:08;;;;;;;;;;;;;;;;;;4992904;28;19934;-67
2021/01/08 04:04:34;;;;;;;;;;;;;;;;;;4994085;28;19925;-68
2021/01/08 04:07:01;;;;;;;;;;;;;;;;;;4995534;28;20350;-67
2021/01/08 04:09:27;;;;;;;;;;;;;;;;;;4996910;28;19926;-67
2021/01/08 04:11:54;;;;;;;;;;;;;;;;;;4992456;28;19926;-68
2021/01/08 04:14:20;;;;;;;;;;;;;;;;;;4994963;28;19988;-67
2021/01/08 04:16:47;;;;;;;;;;;;;;;;;;4993584;28;19934;-67
2021/01/08 04:19:13;;;;;;;;;;;;;;;;;;4993431;28;19925;-67
2021/01/08 04:21:40;;;;;;;;;;;;;;;;;;4993665;28;19926;-67
2021/01/08 04:24:06;;;;;;;;;;;;;;;;;;4993581;28;19925;-67
2021/01/08 04:26:33;;;;;;;;;;;;;;;;;;4993338;28;19925;-66
2021/01/08 04:28:59;;;;;;;;;;;;;;;;;;4995726;28;19932;-67
2021/01/08 04:31:26;;;;;;;;;;;;;;;;;;4993091;28;19930;-67
2021/01/08 04:33:52;;;;;;;;;;;;;;;;;;4993648;28;19925;-67
2021/01/08 04:36:18;;;;;;;;;;;;;;;;;;4993421;28;20017;-67
2021/01/08 04:38:45;;;;;;;;;;;;;;;;;;4992678;28;19926;-67
2021/01/08 04:41:11;;;;;;;;;;;;;;;;;;4993403;28;19926;-67
2021/01/08 04:43:38;;;;;;;;;;;;;;;;;;4992100;28;19926;-67
2021/01/08 04:46:04;;;;;;;;;;;;;;;;;;4994594;28;19940;-67
2021/01/08 04:48:31;;;;;;;;;;;;;;;;;;4992407;28;19929;-68
2021/01/08 04:50:58;;;;;;;;;;;;;;;;;;4990599;28;19957;-71
2021/01/08 04:53:24;;;;;;;;;;;;;;;;;;4992319;28;19926;-67
2021/01/08 04:55:51;;;;;;;;;;;;;;;;;;4992246;28;19930;-67
2021/01/08 04:58:17;;;;;;;;;;;;;;;;;;4992786;28;19932;-67
2021/01/08 05:00:44;;;;;;;;;;;;;;;;;;4992016;28;19972;-67
2021/01/08 05:03:10;;;;;;;;;;;;;;;;;;4991869;28;19930;-68
2021/01/08 05:05:37;;;;;;;;;;;;;;;;;;4994867;28;19926;-67
2021/01/08 05:08:03;;;;;;;;;;;;;;;;;;4992419;28;19926;-67
2021/01/08 05:10:29;;;;;;;;;;;;;;;;;;4995000;28;19929;-67
2021/01/08 05:12:56;;;;;;;;;;;;;;;;;;4986508;28;19925;-66
2021/01/08 05:15:22;;;;;;;;;;;;;;;;;;4993051;28;19926;-67
2021/01/08 05:17:49;;;;;;;;;;;;;;;;;;4993555;28;19926;-67
2021/01/08 05:20:15;;;;;;;;;;;;;;;;;;4992679;28;19926;-69
2021/01/08 05:22:42;;;;;;;;;;;;;;;;;;4992985;28;19926;-67
2021/01/08 05:25:08;;;;;;;;;;;;;;;;;;4993112;28;19972;-66
2021/01/08 05:27:34;;;;;;;;;;;;;;;;;;4991484;28;19933;-66
2021/01/08 05:30:01;;;;;;;;;;;;;;;;;;4992218;28;20040;-68
2021/01/08 05:32:31;;;;;;;;;;;;;;;;;;4991972;28;19926;-68
2021/01/08 05:34:58;;;;;;;;;;;;;;;;;;4991586;28;19930;-68
2021/01/08 05:37:24;;;;;;;;;;;;;;;;;;4991873;28;19929;-67
2021/01/08 05:39:50;;;;;;;;;;;;;;;;;;4991910;28;19974;-67
2021/01/08 05:42:17;;;;;;;;;;;;;;;;;;4991908;28;19937;-68
2021/01/08 05:44:43;;;;;;;;;;;;;;;;;;4991634;28;20387;-68
2021/01/08 05:47:10;;;;;;;;;;;;;;;;;;4992038;28;20000;-68
2021/01/08 05:49:36;;;;;;;;;;;;;;;;;;4995771;28;19941;-68
2021/01/08 05:52:03;;;;;;;;;;;;;;;;;;4994123;28;19930;-67
2021/01/08 05:54:29;;;;;;;;;;;;;;;;;;4989284;28;19925;-67
2021/01/08 05:56:56;;;;;;;;;;;;;;;;;;4994695;28;19984;-67
2021/01/08 05:59:22;;;;;;;;;;;;;;;;;;4994002;28;19926;-68
2021/01/08 06:01:48;;;;;;;;;;;;;;;;;;4992270;28;19925;-68
2021/01/08 06:04:15;;;;;;;;;;;;;;;;;;4990082;28;20025;-69
2021/01/08 06:06:41;;;;;;;;;;;;;;;;;;4991580;28;19925;-68
2021/01/08 06:09:08;;;;;;;;;;;;;;;;;;4990730;28;20364;-68
2021/01/08 06:11:34;;;;;;;;;;;;;;;;;;4991441;28;19930;-67
2021/01/08 06:14:01;;;;;;;;;;;;;;;;;;4990165;28;19932;-67
2021/01/08 06:16:27;;;;;;;;;;;;;;;;;;4987617;28;19936;-67
2021/01/08 06:18:54;;;;;;;;;;;;;;;;;;4991099;28;19926;-67
2021/01/08 06:21:20;;;;;;;;;;;;;;;;;;4991892;28;20315;-67
2021/01/08 06:23:47;;;;;;;;;;;;;;;;;;4992167;28;19926;-66
2021/01/08 06:26:13;;;;;;;;;;;;;;;;;;4993893;28;19932;-67
2021/01/08 06:28:40;;;;;;;;;;;;;;;;;;4992056;28;20472;-66
2021/01/08 06:31:06;;;;;;;;;;;;;;;;;;4990710;28;19926;-66
2021/01/08 06:33:33;;;;;;;;;;;;;;;;;;4991820;28;20016;-66
2021/01/08 06:35:59;;;;;;;;;;;;;;;;;;4991669;28;19929;-68
2021/01/08 06:38:26;;;;;;;;;;;;;;;;;;4995073;28;19937;-66
2021/01/08 06:40:52;;;;;;;;;;;;;;;;;;4992034;28;19938;-66
2021/01/08 06:43:19;;;;;;;;;;;;;;;;;;4993102;28;19926;-66
2021/01/08 06:45:45;;;;;;;;;;;;;;;;;;4995132;28;19934;-66
2021/01/08 06:48:12;;;;;;;;;;;;;;;;;;4990482;28;19940;-66
2021/01/08 06:50:38;;;;;;;;;;;;;;;;;;4991314;28;19930;-65
2021/01/08 06:53:05;;;;;;;;;;;;;;;;;;4992966;28;20012;-65
2021/01/08 06:55:31;;;;;;;;;;;;;;;;;;4995174;28;19932;-65
2021/01/08 06:58:00;;;;;;;;;;;;;;;;;;4994437;28;20027;-66
2021/01/08 07:00:26;;;;;;;;;;;;;;;;;;4990034;28;19926;-66
2021/01/08 07:02:53;;;;;;;;;;;;;;;;;;4994139;28;19926;-66
2021/01/08 07:05:20;;;;;;;;;;;;;;;;;;4992016;28;19926;-66
2021/01/08 07:07:46;;;;;;;;;;;;;;;;;;4993618;28;20679;-66
2021/01/08 07:10:12;;;;;;;;;;;;;;;;;;4992691;28;20418;-66
2021/01/08 07:12:39;;;;;;;;;;;;;;;;;;4992334;28;20033;-66
2021/01/08 07:15:05;;;;;;;;;;;;;;;;;;4994826;28;19929;-65
2021/01/08 07:17:32;;;;;;;;;;;;;;;;;;4994547;28;19932;-65
2021/01/08 07:19:58;;;;;;;;;;;;;;;;;;4995190;28;20277;-65
2021/01/08 07:22:25;;;;;;;;;;;;;;;;;;4995217;28;20403;-66
2021/01/08 07:24:51;;;;;;;;;;;;;;;;;;4991649;28;19926;-66
2021/01/08 07:27:18;;;;;;;;;;;;;;;;;;4992337;28;19926;-66
2021/01/08 07:29:44;;;;;;;;;;;;;;;;;;4990498;28;20008;-66
2021/01/08 07:32:10;;;;;;;;;;;;;;;;;;4993365;28;19930;-67
2021/01/08 07:34:37;;;;;;;;;;;;;;;;;;4994349;28;20431;-66
2021/01/08 07:37:03;;;;;;;;;;;;;;;;;;4990118;28;19926;-66
2021/01/08 07:39:30;;;;;;;;;;;;;;;;;;4991119;28;20526;-66
2021/01/08 07:41:57;;;;;;;;;;;;;;;;;;4993512;28;19925;-66
2021/01/08 07:44:23;;;;;;;;;;;;;;;;;;4992356;28;19926;-66
2021/01/08 07:46:49;;;;;;;;;;;;;;;;;;4982734;28;19933;-66
2021/01/08 07:49:16;;;;;;;;;;;;;;;;;;4991943;28;20384;-66
2021/01/08 07:51:42;;;;;;;;;;;;;;;;;;4992158;28;19926;-66
2021/01/08 07:54:09;;;;;;;;;;;;;;;;;;4990222;28;19926;-65
2021/01/08 07:56:35;;;;;;;;;;;;;;;;;;4993986;28;19926;-66
2021/01/08 07:59:03;;;;;;;;;;;;;;;;;;4993003;28;19932;-66
2021/01/08 08:01:29;;;;;;;;;;;;;;;;;;4990949;28;20324;-65
2021/01/08 08:03:56;;;;;;;;;;;;;;;;;;4994051;28;19926;-66
2021/01/08 08:06:22;;;;;;;;;;;;;;;;;;4994066;28;19926;-66
2021/01/08 08:08:49;;;;;;;;;;;;;;;;;;4986995;28;19929;-66
2021/01/08 08:11:16;;;;;;;;;;;;;;;;;;4992388;28;19940;-66
2021/01/08 08:13:42;;;;;;;;;;;;;;;;;;4993917;28;20315;-67
2021/01/08 08:16:09;;;;;;;;;;;;;;;;;;4994717;28;19925;-67
2021/01/08 08:18:35;;;;;;;;;;;;;;;;;;4993862;28;19925;-67
2021/01/08 08:21:02;;;;;;;;;;;;;;;;;;4994623;28;19926;-67
2021/01/08 08:23:28;;;;;;;;;;;;;;;;;;4994401;28;19977;-68
2021/01/08 08:25:55;;;;;;;;;;;;;;;;;;4994551;28;19926;-66
2021/01/08 08:28:21;;;;;;;;;;;;;;;;;;4992297;28;19926;-67
2021/01/08 08:30:47;;;;;;;;;;;;;;;;;;4985050;28;20323;-67
2021/01/08 08:33:14;;;;;;;;;;;;;;;;;;4990669;28;19934;-66
2021/01/08 08:35:40;;;;;;;;;;;;;;;;;;4993420;28;20117;-67
2021/01/08 08:38:07;;;;;;;;;;;;;;;;;;4991697;28;19925;-67
2021/01/08 08:40:33;;;;;;;;;;;;;;;;;;4993891;28;19926;-67
2021/01/08 08:43:00;;;;;;;;;;;;;;;;;;4990977;28;19991;-67
2021/01/08 08:45:26;;;;;;;;;;;;;;;;;;4993443;28;19934;-67
2021/01/08 08:47:52;;;;;;;;;;;;;;;;;;4992376;28;19925;-66
2021/01/08 08:50:19;;;;;;;;;;;;;;;;;;4989710;28;19933;-66
2021/01/08 08:52:45;;;;;;;;;;;;;;;;;;4991548;28;19968;-65
2021/01/08 08:55:12;;;;;;;;;;;;;;;;;;4992196;28;19940;-68
2021/01/08 08:57:38;;;;;;;;;;;;;;;;;;4991409;28;20060;-67
2021/01/08 09:00:05;;;;;;;;;;;;;;;;;;4992571;28;19925;-68
2021/01/08 09:02:31;;;;;;;;;;;;;;;;;;4992553;28;19934;-70
2021/01/08 09:04:58;;;;;;;;;;;;;;;;;;4990502;28;19933;-66
2021/01/08 09:07:24;;;;;;;;;;;;;;;;;;4996646;28;20243;-67
2021/01/08 09:09:51;;;;;;;;;;;;;;;;;;4986283;28;19926;-66
2021/01/08 09:12:17;;;;;;;;;;;;;;;;;;4996967;28;19925;-67
2021/01/08 09:14:44;;;;;;;;;;;;;;;;;;4991261;28;19926;-66
2021/01/08 09:17:10;;;;;;;;;;;;;;;;;;4986517;28;19934;-66
2021/01/08 09:19:37;;;;;;;;;;;;;;;;;;4991197;28;20295;-65
2021/01/08 09:22:03;;;;;;;;;;;;;;;;;;4989742;28;19926;-65
2021/01/08 09:24:30;;;;;;;;;;;;;;;;;;4993374;28;19932;-64
2021/01/08 09:26:56;;;;;;;;;;;;;;;;;;4992285;28;20279;-64
2021/01/08 09:29:23;;;;;;;;;;;;;;;;;;4991549;28;19932;-64
2021/01/08 09:31:49;;;;;;;;;;;;;;;;;;4992461;28;19983;-62
2021/01/08 09:34:16;;;;;;;;;;;;;;;;;;4990345;28;19932;-68
2021/01/08 09:36:44;;;;;;;;;;;;;;;;;;4991291;28;19933;-63
2021/01/08 09:39:10;;;;;;;;;;;;;;;;;;4991466;28;19930;-63
2021/01/08 09:41:37;;;;;;;;;;;;;;;;;;4991589;28;20391;-63
2021/01/08 09:44:03;;;;;;;;;;;;;;;;;;4990850;28;19925;-66
2021/01/08 09:46:30;;;;;;;;;;;;;;;;;;4990588;28;19933;-63
2021/01/08 09:48:56;;;;;;;;;;;;;;;;;;4991091;28;19938;-63
2021/01/08 09:51:23;;;;;;;;;;;;;;;;;;4987881;28;19926;-63
2021/01/08 09:53:49;;;;;;;;;;;;;;;;;;4987175;28;19926;-63
2021/01/08 09:56:16;;;;;;;;;;;;;;;;;;4990592;28;20352;-63
2021/01/08 09:58:42;;;;;;;;;;;;;;;;;;4988347;28;19979;-63
2021/01/08 10:01:12;;;;;;;;;;;;;;;;;;4991592;28;20009;-64
2021/01/08 10:03:39;;;;;;;;;;;;;;;;;;4990746;28;19930;-63
2021/01/08 10:06:09;;;;;;;;;;;;;;;;;;4987589;28;20016;-64
2021/01/08 10:08:35;;;;;;;;;;;;;;;;;;4988836;28;19937;-64
2021/01/08 10:11:02;;;;;;;;;;;;;;;;;;4990251;28;19926;-63
2021/01/08 10:13:29;;;;;;;;;;;;;;;;;;4990866;28;20218;-64
2021/01/08 10:15:59;;;;;;;;;;;;;;;;;;4990666;28;19938;-64
2021/01/08 10:18:26;;;;;;;;;;;;;;;;;;4990852;28;19925;-64
2021/01/08 10:20:53;;;;;;;;;;;;;;;;;;4990586;28;19933;-64
2021/01/08 10:23:19;;;;;;;;;;;;;;;;;;4990793;28;20395;-64
2021/01/08 10:25:46;;;;;;;;;;;;;;;;;;4990496;28;20319;-65
2021/01/08 10:28:12;;;;;;;;;;;;;;;;;;4992226;28;19925;-64
2021/01/08 10:30:39;;;;;;;;;;;;;;;;;;4990239;28;20311;-63
2021/01/08 10:33:05;;;;;;;;;;;;;;;;;;4990531;28;20024;-64
2021/01/08 10:35:32;;;;;;;;;;;;;;;;;;4991169;28;20301;-64
2021/01/08 10:37:58;;;;;;;;;;;;;;;;;;4989400;28;19925;-64
2021/01/08 10:40:25;;;;;;;;;;;;;;;;;;4989750;28;20024;-64
2021/01/08 10:42:51;;;;;;;;;;;;;;;;;;4989460;28;19932;-64
2021/01/08 10:45:18;;;;;;;;;;;;;;;;;;4990672;28;19926;-64
2021/01/08 10:47:44;;;;;;;;;;;;;;;;;;4986826;28;19926;-64
2021/01/08 10:50:11;;;;;;;;;;;;;;;;;;4991113;28;20379;-64
2021/01/08 10:52:37;;;;;;;;;;;;;;;;;;4992864;28;19932;-64
2021/01/08 10:55:04;;;;;;;;;;;;;;;;;;4998161;28;20195;-63
2021/01/08 10:57:30;;;;;;;;;;;;;;;;;;4989111;28;20560;-63
2021/01/08 10:59:57;;;;;;;;;;;;;;;;;;4988651;28;19934;-64
2021/01/08 11:02:23;;;;;;;;;;;;;;;;;;4991147;28;19930;-64
2021/01/08 11:04:50;;;;;;;;;;;;;;;;;;4990666;28;20318;-64
2021/01/08 11:07:16;;;;;;;;;;;;;;;;;;4991320;28;19934;-63
2021/01/08 11:09:43;;;;;;;;;;;;;;;;;;4990888;28;20021;-63
2021/01/08 11:12:09;;;;;;;;;;;;;;;;;;4990596;28;19932;-64
2021/01/08 11:14:36;;;;;;;;;;;;;;;;;;4992227;28;19961;-64
2021/01/08 11:17:02;;;;;;;;;;;;;;;;;;4992656;28;20025;-64
2021/01/08 11:19:29;;;;;;;;;;;;;;;;;;4991666;28;19925;-64
2021/01/08 11:21:55;;;;;;;;;;;;;;;;;;4991871;28;19949;-64
2021/01/08 11:24:22;;;;;;;;;;;;;;;;;;4994362;28;19944;-64
2021/01/08 11:26:48;;;;;;;;;;;;;;;;;;4994811;28;20343;-64
2021/01/08 11:29:15;;;;;;;;;;;;;;;;;;4994257;28;19926;-64
2021/01/08 11:31:41;;;;;;;;;;;;;;;;;;4993459;28;19941;-64
2021/01/08 11:34:08;;;;;;;;;;;;;;;;;;4994293;28;20029;-64
2021/01/08 11:36:34;;;;;;;;;;;;;;;;;;4993097;28;19932;-64
2021/01/08 11:39:01;;;;;;;;;;;;;;;;;;4989243;28;19938;-64
2021/01/08 11:41:27;;;;;;;;;;;;;;;;;;4995256;28;19925;-64
2021/01/08 11:43:54;;;;;;;;;;;;;;;;;;4994352;28;19926;-64
2021/01/08 11:46:20;;;;;;;;;;;;;;;;;;4994008;28;19936;-64
2021/01/08 11:48:47;;;;;;;;;;;;;;;;;;4993006;28;19933;-64
2021/01/08 11:51:13;;;;;;;;;;;;;;;;;;4994336;28;19932;-64
2021/01/08 11:53:40;;;;;;;;;;;;;;;;;;4993969;28;19930;-64
2021/01/08 11:56:08;;;;;;;;;;;;;;;;;;4993868;28;19979;-64
2021/01/08 11:58:35;;;;;;;;;;;;;;;;;;4992606;28;20312;-64
2021/01/08 12:01:01;;;;;;;;;;;;;;;;;;4993579;28;19926;-64
2021/01/08 12:03:28;;;;;;;;;;;;;;;;;;4991583;28;20380;-64
2021/01/08 12:05:54;;;;;;;;;;;;;;;;;;4994221;28;19925;-64
2021/01/08 12:08:21;;;;;;;;;;;;;;;;;;4993386;28;19926;-64
2021/01/08 12:10:47;;;;;;;;;;;;;;;;;;4989266;28;19932;-65
2021/01/08 12:13:14;;;;;;;;;;;;;;;;;;4992651;28;20024;-64
2021/01/08 12:15:40;;;;;;;;;;;;;;;;;;4992675;28;19984;-64
2021/01/08 12:18:07;;;;;;;;;;;;;;;;;;4992057;28;19930;-65
2021/01/08 12:20:34;;;;;;;;;;;;;;;;;;4992176;28;19926;-64
2021/01/08 12:23:00;;;;;;;;;;;;;;;;;;4983319;28;19937;-68
2021/01/08 12:25:27;;;;;;;;;;;;;;;;;;4992588;28;20184;-65
2021/01/08 12:27:53;;;;;;;;;;;;;;;;;;4991478;28;19926;-65
2021/01/08 12:30:20;;;;;;;;;;;;;;;;;;4991132;28;19940;-64
2021/01/08 12:32:46;;;;;;;;;;;;;;;;;;4991089;28;19925;-66
2021/01/08 12:35:12;;;;;;;;;;;;;;;;;;4991225;28;19941;-65
2021/01/08 12:37:39;;;;;;;;;;;;;;;;;;4991710;28;19981;-66
2021/01/08 12:40:05;;;;;;;;;;;;;;;;;;4990930;28;19933;-66
2021/01/08 12:42:32;;;;;;;;;;;;;;;;;;4988393;28;19980;-65
2021/01/08 12:44:58;;;;;;;;;;;;;;;;;;4992790;28;20352;-65
2021/01/08 12:47:25;;;;;;;;;;;;;;;;;;4991424;28;19959;-65
2021/01/08 12:49:51;;;;;;;;;;;;;;;;;;4990586;28;20012;-66
2021/01/08 12:52:18;;;;;;;;;;;;;;;;;;4989211;28;19933;-65
2021/01/08 12:54:44;;;;;;;;;;;;;;;;;;4991327;28;19926;-65
2021/01/08 12:57:11;;;;;;;;;;;;;;;;;;4993679;28;19926;-67
2021/01/08 12:59:40;;;;;;;;;;;;;;;;;;4989984;28;19984;-66
2021/01/08 13:02:07;;;;;;;;;;;;;;;;;;4992095;28;19933;-65
2021/01/08 13:04:33;;;;;;;;;;;;;;;;;;4990988;28;20005;-65
2021/01/08 13:07:00;;;;;;;;;;;;;;;;;;4989928;28;20411;-64
2021/01/08 13:09:26;;;;;;;;;;;;;;;;;;4991883;28;20017;-65
2021/01/08 13:11:53;;;;;;;;;;;;;;;;;;4987952;28;19932;-65
2021/01/08 13:14:20;;;;;;;;;;;;;;;;;;4990349;28;20323;-65
2021/01/08 13:16:46;;;;;;;;;;;;;;;;;;4990856;28;20024;-65
2021/01/08 13:19:13;;;;;;;;;;;;;;;;;;4991555;28;19926;-66
2021/01/08 13:21:39;;;;;;;;;;;;;;;;;;4992570;28;19925;-66
2021/01/08 13:24:06;;;;;;;;;;;;;;;;;;4991406;28;19926;-66
2021/01/08 13:26:32;;;;;;;;;;;;;;;;;;4989479;28;20399;-66
2021/01/08 13:28:59;;;;;;;;;;;;;;;;;;4989516;28;19934;-65
2021/01/08 13:31:26;;;;;;;;;;;;;;;;;;4990223;28;19929;-66
2021/01/08 13:33:53;;;;;;;;;;;;;;;;;;4990231;28;19926;-65
2021/01/08 13:36:19;;;;;;;;;;;;;;;;;;4985260;28;19972;-65
2021/01/08 13:38:46;;;;;;;;;;;;;;;;;;4990486;28;19932;-65
2021/01/08 13:41:12;;;;;;;;;;;;;;;;;;4990776;28;20363;-65
2021/01/08 13:43:39;;;;;;;;;;;;;;;;;;4989622;28;19926;-65
2021/01/08 13:46:06;;;;;;;;;;;;;;;;;;4987492;28;20430;-66
2021/01/08 13:48:32;;;;;;;;;;;;;;;;;;4989903;28;20020;-66
2021/01/08 13:50:59;;;;;;;;;;;;;;;;;;4989286;28;20336;-65
2021/01/08 13:53:25;;;;;;;;;;;;;;;;;;4985712;28;19926;-65
2021/01/08 13:55:52;;;;;;;;;;;;;;;;;;4991231;28;19925;-65
2021/01/08 13:58:18;;;;;;;;;;;;;;;;;;4991374;28;20119;-65
2021/01/08 14:00:45;;;;;;;;;;;;;;;;;;4989471;28;19981;-66
2021/01/08 14:03:12;;;;;;;;;;;;;;;;;;4989789;28;19988;-65
2021/01/08 14:05:39;;;;;;;;;;;;;;;;;;4990307;28;19926;-65
2021/01/08 14:08:06;;;;;;;;;;;;;;;;;;4990806;28;19925;-65
2021/01/08 14:10:32;;;;;;;;;;;;;;;;;;4990384;28;19926;-64
2021/01/08 14:12:59;;;;;;;;;;;;;;;;;;4991102;28;19995;-65
2021/01/08 14:15:25;;;;;;;;;;;;;;;;;;4991094;28;19926;-64
2021/01/08 14:17:52;;;;;;;;;;;;;;;;;;4986981;28;19929;-64
2021/01/08 14:20:18;;;;;;;;;;;;;;;;;;4990003;28;19926;-64
2021/01/08 14:22:45;;;;;;;;;;;;;;;;;;4989733;28;20017;-65
2021/01/08 14:25:11;;;;;;;;;;;;;;;;;;4988544;28;20327;-65
2021/01/08 14:27:38;;;;;;;;;;;;;;;;;;4989584;28;19925;-65
2021/01/08 14:30:04;;;;;;;;;;;;;;;;;;4992004;28;19933;-64
2021/01/08 14:32:31;;;;;;;;;;;;;;;;;;4989867;28;20017;-64
2021/01/08 14:34:57;;;;;;;;;;;;;;;;;;4990389;28;20366;-65
2021/01/08 14:37:24;;;;;;;;;;;;;;;;;;4986662;28;19940;-64
2021/01/08 14:39:50;;;;;;;;;;;;;;;;;;4989726;28;19934;-65
2021/01/08 14:42:17;;;;;;;;;;;;;;;;;;4991269;28;19932;-64
2021/01/08 14:44:43;;;;;;;;;;;;;;;;;;4988924;28;19929;-67
2021/01/08 14:47:10;;;;;;;;;;;;;;;;;;4990993;28;19930;-65
2021/01/08 14:49:36;;;;;;;;;;;;;;;;;;4990711;28;19972;-65
2021/01/08 14:52:03;;;;;;;;;;;;;;;;;;4990951;28;19945;-65
2021/01/08 14:54:29;;;;;;;;;;;;;;;;;;4986516;28;19926;-64
2021/01/08 14:56:57;;;;;;;;;;;;;;;;;;4991101;28;19972;-65
2021/01/08 14:59:23;;;;;;;;;;;;;;;;;;4993742;28;19983;-65
2021/01/08 15:01:50;;;;;;;;;;;;;;;;;;4990018;28;19979;-64
2021/01/08 15:04:16;;;;;;;;;;;;;;;;;;4989058;28;20384;-64
2021/01/08 15:06:43;;;;;;;;;;;;;;;;;;4996131;28;19932;-64
2021/01/08 15:09:10;;;;;;;;;;;;;;;;;;4995206;28;19961;-64
2021/01/08 15:11:36;;;;;;;;;;;;;;;;;;4993981;28;19926;-65
2021/01/08 15:14:03;;;;;;;;;;;;;;;;;;4993153;28;19934;-64
2021/01/08 15:16:29;;;;;;;;;;;;;;;;;;4993997;28;20020;-65
2021/01/08 15:18:56;;;;;;;;;;;;;;;;;;4992595;28;20013;-64
2021/01/08 15:21:22;;;;;;;;;;;;;;;;;;4995261;28;20055;-65
2021/01/08 15:23:51;;;;;;;;;;;;;;;;;;4993017;28;20206;-65
2021/01/08 15:26:18;;;;;;;;;;;;;;;;;;4993651;28;19980;-68
2021/01/08 15:28:44;;;;;;;;;;;;;;;;;;4993698;28;19977;-67
2021/01/08 15:31:11;;;;;;;;;;;;;;;;;;4993962;28;19956;-67
2021/01/08 15:33:37;;;;;;;;;;;;;;;;;;4993841;28;19925;-69
2021/01/08 15:36:04;;;;;;;;;;;;;;;;;;4993525;28;20040;-68
2021/01/08 15:38:30;;;;;;;;;;;;;;;;;;4990909;28;19940;-69
2021/01/08 15:40:57;;;;;;;;;;;;;;;;;;4993655;28;19985;-68
2021/01/08 15:43:23;;;;;;;;;;;;;;;;;;4991046;28;19929;-68
2021/01/08 15:45:50;;;;;;;;;;;;;;;;;;4994712;28;20080;-68
2021/01/08 15:48:16;;;;;;;;;;;;;;;;;;4993361;28;19932;-68
2021/01/08 15:50:43;;;;;;;;;;;;;;;;;;4992671;28;19926;-68
2021/01/08 15:53:09;;;;;;;;;;;;;;;;;;4992878;28;19972;-68
2021/01/08 15:55:36;;;;;;;;;;;;;;;;;;4992692;28;20066;-68
2021/01/08 15:58:02;;;;;;;;;;;;;;;;;;4993234;28;20359;-68
2021/01/08 16:00:29;;;;;;;;;;;;;;;;;;4991520;28;19930;-68
2021/01/08 16:02:56;;;;;;;;;;;;;;;;;;4991464;28;19934;-68
2021/01/08 16:05:22;;;;;;;;;;;;;;;;;;4992869;28;19926;-69
2021/01/08 16:07:49;;;;;;;;;;;;;;;;;;4993112;28;19940;-68
2021/01/08 16:10:15;;;;;;;;;;;;;;;;;;4992402;28;19925;-68
2021/01/08 16:12:42;;;;;;;;;;;;;;;;;;4992994;28;20020;-68
2021/01/08 16:15:09;;;;;;;;;;;;;;;;;;4990388;28;19979;-67
2021/01/08 16:17:35;;;;;;;;;;;;;;;;;;4991023;28;20396;-66
2021/01/08 16:20:02;;;;;;;;;;;;;;;;;;4990713;28;19925;-66
2021/01/08 16:22:28;;;;;;;;;;;;;;;;;;4988219;28;20012;-66
2021/01/08 16:24:55;;;;;;;;;;;;;;;;;;4992457;28;20001;-68
2021/01/08 16:27:22;;;;;;;;;;;;;;;;;;4993269;28;20017;-67
2021/01/08 16:29:49;;;;;;;;;;;;;;;;;;4993141;28;20457;-67
2021/01/08 16:32:15;;;;;;;;;;;;;;;;;;4993293;28;20398;-67
2021/01/08 16:34:42;;;;;;;;;;;;;;;;;;4992895;28;19976;-68
2021/01/08 16:37:08;;;;;;;;;;;;;;;;;;4993968;28;19925;-67
2021/01/08 16:39:35;;;;;;;;;;;;;;;;;;4993031;28;19932;-67